Time;durP1;ratioP1;P1;durP2;ratioP2;P2;SDS_P1;SDS_P2;PMS_P1;PMS_P2;Temp;Humidity;BMP_temperature;BMP_pressure;BME280_temperature;BME280_humidity;BME280_pressure;Samples;Min_cycle;Max_cycle;Signal;HPM_P1;HPM_P2
2022/03/06 00:01:04;;;;;;;2.90;2.05;;;7.80;91.50;;;;;;5137733;27;20502;-73
2022/03/06 00:03:30;;;;;;;4.35;2.30;;;7.80;91.60;;;;;;5146767;27;20024;-73
2022/03/06 00:05:55;;;;;;;4.30;2.22;;;7.80;91.70;;;;;;5121124;27;20030;-74
2022/03/06 00:08:21;;;;;;;5.55;2.70;;;7.70;91.70;;;;;;5141049;27;20095;-74
2022/03/06 00:10:48;;;;;;;4.88;2.58;;;7.70;91.70;;;;;;5138781;27;20031;-74
2022/03/06 00:13:14;;;;;;;3.53;2.20;;;7.70;91.90;;;;;;5137866;27;20019;-74
2022/03/06 00:15:41;;;;;;;4.55;2.40;;;7.70;91.90;;;;;;5146220;27;20038;-74
2022/03/06 00:18:07;;;;;;;4.68;2.42;;;7.70;91.90;;;;;;5138778;27;20054;-73
2022/03/06 00:20:33;;;;;;;5.60;2.70;;;7.70;91.90;;;;;;5143118;27;20114;-73
2022/03/06 00:22:59;;;;;;;5.63;2.88;;;7.70;91.90;;;;;;5136321;27;20657;-73
2022/03/06 00:25:25;;;;;;;6.35;3.28;;;7.70;91.90;;;;;;5119182;27;20095;-73
2022/03/06 00:27:51;;;;;;;7.97;3.60;;;7.70;91.90;;;;;;5146328;27;20079;-73
2022/03/06 00:30:16;;;;;;;6.15;3.55;;;7.60;92.00;;;;;;5137628;27;20042;-73
2022/03/06 00:32:42;;;;;;;6.15;3.47;;;7.70;92.60;;;;;;5145500;27;20050;-73
2022/03/06 00:35:08;;;;;;;7.68;4.25;;;7.60;92.10;;;;;;5135358;27;20495;-73
2022/03/06 00:37:34;;;;;;;6.18;3.70;;;7.60;92.20;;;;;;5138091;27;20023;-73
2022/03/06 00:40:00;;;;;;;7.13;4.03;;;7.70;92.10;;;;;;5143789;27;20514;-73
2022/03/06 00:42:26;;;;;;;10.57;4.47;;;7.70;92.00;;;;;;5106777;27;20507;-73
2022/03/06 00:44:52;;;;;;;9.25;5.10;;;7.70;91.90;;;;;;5146640;27;20039;-73
2022/03/06 00:47:18;;;;;;;9.57;5.20;;;7.70;91.90;;;;;;5133672;27;20027;-74
2022/03/06 00:49:44;;;;;;;9.10;5.07;;;7.70;91.90;;;;;;5139562;27;20023;-73
2022/03/06 00:52:09;;;;;;;11.13;5.85;;;7.60;92.10;;;;;;5143091;27;20024;-73
2022/03/06 00:54:35;;;;;;;11.55;5.65;;;7.60;92.10;;;;;;5136962;27;20061;-73
2022/03/06 00:57:01;;;;;;;11.95;5.50;;;7.70;92.10;;;;;;5134139;27;20019;-73
2022/03/06 00:59:32;;;;;;;10.85;5.90;;;7.70;92.00;;;;;;5133478;27;20060;-73
2022/03/06 01:01:59;;;;;;;11.38;6.30;;;7.70;91.90;;;;;;5132710;27;20027;-74
2022/03/06 01:04:25;;;;;;;11.73;7.05;;;7.60;92.00;;;;;;5132870;27;20050;-74
2022/03/06 01:06:50;;;;;;;12.48;7.13;;;7.60;92.10;;;;;;5132568;27;20058;-74
2022/03/06 01:09:16;;;;;;;15.40;8.27;;;7.60;92.10;;;;;;5114276;27;20559;-74
2022/03/06 01:11:42;;;;;;;13.73;8.13;;;7.60;92.20;;;;;;5134571;27;20024;-74
2022/03/06 01:14:08;;;;;;;14.27;8.07;;;7.60;92.10;;;;;;5132640;27;20034;-74
2022/03/06 01:16:33;;;;;;;15.18;8.95;;;7.60;92.10;;;;;;5132607;27;20023;-75
2022/03/06 01:18:59;;;;;;;14.38;8.38;;;7.60;92.20;;;;;;5132686;27;20030;-74
2022/03/06 01:21:25;;;;;;;13.70;8.02;;;7.60;92.10;;;;;;5132003;27;20492;-74
2022/03/06 01:23:50;;;;;;;17.63;8.88;;;7.60;92.20;;;;;;5134742;27;20034;-74
2022/03/06 01:26:17;;;;;;;16.83;8.77;;;7.60;92.30;;;;;;5132215;27;20538;-74
2022/03/06 01:28:43;;;;;;;16.67;9.40;;;7.60;92.10;;;;;;5132251;27;20126;-75
2022/03/06 01:31:09;;;;;;;14.15;7.88;;;7.60;92.30;;;;;;5132345;27;20109;-75
2022/03/06 01:33:34;;;;;;;15.48;7.38;;;7.60;92.20;;;;;;5130207;27;20028;-74
2022/03/06 01:36:00;;;;;;;15.90;8.50;;;7.60;92.60;;;;;;5130028;27;20035;-74
2022/03/06 01:38:26;;;;;;;15.27;8.90;;;7.60;92.40;;;;;;5131377;27;20076;-74
2022/03/06 01:40:51;;;;;;;13.35;7.78;;;7.50;92.30;;;;;;5131959;27;20100;-74
2022/03/06 01:43:17;;;;;;;13.45;7.15;;;7.60;92.30;;;;;;5132010;27;20024;-74
2022/03/06 01:45:43;;;;;;;12.05;7.32;;;7.50;92.50;;;;;;5131997;27;20043;-74
2022/03/06 01:48:09;;;;;;;12.13;7.07;;;7.50;92.40;;;;;;5132725;27;20087;-74
2022/03/06 01:50:35;;;;;;;11.50;6.60;;;7.50;92.40;;;;;;5133196;27;20025;-74
2022/03/06 01:53:15;;;;;;;13.20;7.05;;;7.50;92.40;;;;;;5131933;27;20019;-74
2022/03/06 01:55:42;;;;;;;11.77;6.30;;;7.50;92.40;;;;;;5131876;27;20035;-74
2022/03/06 01:58:09;;;;;;;10.50;5.75;;;7.50;92.40;;;;;;5130057;27;20019;-74
2022/03/06 02:00:48;;;;;;;11.30;5.22;;;7.50;92.40;;;;;;5113311;27;20031;-74
2022/03/06 02:03:14;;;;;;;9.50;4.75;;;7.50;92.30;;;;;;5131744;27;20046;-74
2022/03/06 02:05:41;;;;;;;8.70;4.47;;;7.60;92.50;;;;;;5133517;27;20436;-74
2022/03/06 02:08:07;;;;;;;9.68;4.38;;;7.50;92.40;;;;;;5113046;27;20033;-74
2022/03/06 02:10:33;;;;;;;6.63;3.67;;;7.50;92.40;;;;;;5131517;27;20102;-74
2022/03/06 02:12:59;;;;;;;7.45;3.55;;;7.60;92.30;;;;;;5130356;27;20027;-74
2022/03/06 02:15:25;;;;;;;6.45;3.42;;;7.60;92.30;;;;;;5114251;27;20067;-74
2022/03/06 02:17:51;;;;;;;5.85;3.17;;;7.50;92.40;;;;;;5133392;27;20391;-74
2022/03/06 02:20:19;;;;;;;6.15;2.90;;;7.50;92.40;;;;;;5130875;27;20102;-74
2022/03/06 02:22:48;;;;;;;4.72;2.67;;;7.60;92.30;;;;;;5131248;27;20110;-74
2022/03/06 02:25:24;;;;;;;4.57;3.22;;;7.60;92.50;;;;;;5131396;27;20019;-74
2022/03/06 02:27:52;;;;;;;4.43;2.55;;;7.50;92.40;;;;;;5112894;27;20054;-74
2022/03/06 02:30:24;;;;;;;4.95;2.88;;;7.50;92.50;;;;;;5131138;27;20031;-73
2022/03/06 02:32:51;;;;;;;7.03;2.67;;;7.50;92.40;;;;;;5133198;27;20016;-74
2022/03/06 02:35:18;;;;;;;4.65;2.53;;;7.50;92.40;;;;;;5130774;27;20034;-74
2022/03/06 02:37:44;;;;;;;3.72;2.40;;;7.50;92.50;;;;;;5129537;27;20026;-74
2022/03/06 02:40:12;;;;;;;6.03;2.95;;;7.50;92.40;;;;;;5130923;27;20031;-73
2022/03/06 02:42:40;;;;;;;6.88;3.22;;;7.50;92.40;;;;;;5112513;27;20031;-74
2022/03/06 02:45:09;;;;;;;5.07;2.88;;;7.50;92.40;;;;;;5131649;27;20533;-74
2022/03/06 02:47:35;;;;;;;6.50;2.72;;;7.50;92.30;;;;;;5132251;27;20027;-74
2022/03/06 02:50:02;;;;;;;4.53;2.50;;;7.50;92.40;;;;;;5130745;27;20506;-73
2022/03/06 02:52:28;;;;;;;7.57;3.05;;;7.50;92.40;;;;;;5129530;27;20475;-74
2022/03/06 02:54:54;;;;;;;4.25;2.80;;;7.50;92.40;;;;;;5112817;27;20069;-74
2022/03/06 02:57:20;;;;;;;5.72;2.97;;;7.50;92.50;;;;;;5130883;28;20059;-74
2022/03/06 02:59:45;;;;;;;5.18;3.13;;;7.50;92.40;;;;;;5132862;28;20023;-74
2022/03/06 03:02:11;;;;;;;5.53;3.17;;;7.50;92.50;;;;;;5130451;27;20091;-74
2022/03/06 03:04:38;;;;;;;6.18;3.67;;;7.50;92.50;;;;;;5129912;28;20027;-74
2022/03/06 03:07:06;;;;;;;5.68;3.70;;;7.40;92.50;;;;;;5112205;28;20118;-74
2022/03/06 03:09:33;;;;;;;6.47;3.45;;;7.50;92.60;;;;;;5130356;28;20039;-74
2022/03/06 03:11:59;;;;;;;6.63;3.30;;;7.50;92.70;;;;;;5131765;28;20050;-74
2022/03/06 03:14:24;;;;;;;7.43;3.55;;;7.50;92.80;;;;;;5129973;28;20455;-74
2022/03/06 03:16:50;;;;;;;6.35;3.47;;;7.40;92.60;;;;;;5111727;27;20026;-74
2022/03/06 03:19:17;;;;;;;6.68;3.90;;;7.40;92.90;;;;;;5129921;28;20419;-74
2022/03/06 03:21:43;;;;;;;8.90;3.58;;;7.40;92.60;;;;;;5130338;28;20061;-74
2022/03/06 03:24:09;;;;;;;8.55;4.60;;;7.40;92.90;;;;;;5130919;28;20094;-74
2022/03/06 03:26:35;;;;;;;7.57;3.70;;;7.40;93.00;;;;;;5132448;28;20476;-74
2022/03/06 03:29:00;;;;;;;7.30;3.75;;;7.40;93.00;;;;;;5127871;28;20015;-74
2022/03/06 03:31:26;;;;;;;6.25;4.07;;;7.40;92.90;;;;;;5128340;28;20058;-74
2022/03/06 03:33:51;;;;;;;8.77;4.53;;;7.40;93.30;;;;;;5130499;28;20023;-73
2022/03/06 03:36:17;;;;;;;8.13;4.57;;;7.40;93.20;;;;;;5130275;28;20039;-74
2022/03/06 03:38:43;;;;;;;8.82;4.28;;;7.40;93.00;;;;;;5131988;27;20027;-74
2022/03/06 03:41:09;;;;;;;9.23;4.53;;;7.40;93.00;;;;;;5111340;28;20111;-74
2022/03/06 03:43:35;;;;;;;10.02;5.60;;;7.40;92.90;;;;;;5129785;27;20110;-74
2022/03/06 03:46:00;;;;;;;8.35;4.93;;;7.40;93.10;;;;;;5129296;28;20035;-74
2022/03/06 03:48:28;;;;;;;10.57;5.43;;;7.40;93.00;;;;;;5111709;28;20399;-73
2022/03/06 03:50:55;;;;;;;11.35;5.90;;;7.40;93.20;;;;;;5132231;28;20041;-74
2022/03/06 03:53:21;;;;;;;7.97;5.18;;;7.40;93.10;;;;;;5129839;28;20554;-73
2022/03/06 03:55:48;;;;;;;9.82;5.85;;;7.50;93.00;;;;;;5129723;27;20027;-74
2022/03/06 03:58:14;;;;;;;9.88;5.53;;;7.50;93.00;;;;;;5115421;27;20055;-74
2022/03/06 04:00:40;;;;;;;10.82;6.25;;;7.50;92.90;;;;;;5133140;27;20081;-74
2022/03/06 04:03:05;;;;;;;10.60;5.85;;;7.50;92.90;;;;;;5134637;27;20456;-74
2022/03/06 04:05:31;;;;;;;10.55;6.00;;;7.50;92.90;;;;;;5134874;27;20538;-74
2022/03/06 04:07:57;;;;;;;12.65;6.50;;;7.50;92.90;;;;;;5133381;27;20533;-74
2022/03/06 04:10:22;;;;;;;12.07;5.80;;;7.50;92.90;;;;;;5132097;27;20027;-73
2022/03/06 04:12:48;;;;;;;10.88;5.88;;;7.60;92.90;;;;;;5133549;27;20031;-74
2022/03/06 04:15:14;;;;;;;12.05;7.25;;;7.50;92.90;;;;;;5114822;27;20054;-74
2022/03/06 04:17:39;;;;;;;13.63;6.97;;;7.50;93.00;;;;;;5116854;27;20417;-74
2022/03/06 04:20:06;;;;;;;13.05;7.30;;;7.50;93.00;;;;;;5133169;27;20031;-74
2022/03/06 04:22:32;;;;;;;12.68;7.25;;;7.60;93.00;;;;;;5133206;27;20031;-74
2022/03/06 04:24:58;;;;;;;15.57;8.75;;;7.50;93.00;;;;;;5133417;27;20114;-73
2022/03/06 04:27:23;;;;;;;14.45;7.97;;;7.50;93.30;;;;;;5133336;27;20027;-73
2022/03/06 04:29:49;;;;;;;17.33;8.93;;;7.50;93.00;;;;;;5134971;27;20019;-73
2022/03/06 04:32:14;;;;;;;14.38;8.52;;;7.50;92.90;;;;;;5132911;27;20075;-74
2022/03/06 04:34:40;;;;;;;15.98;8.85;;;7.50;92.80;;;;;;5133451;27;20030;-74
2022/03/06 04:37:06;;;;;;;17.17;10.10;;;7.60;92.90;;;;;;5114768;27;20046;-73
2022/03/06 04:39:31;;;;;;;19.02;10.25;;;7.60;92.90;;;;;;5133090;27;20125;-74
2022/03/06 04:41:57;;;;;;;18.08;9.75;;;7.60;93.30;;;;;;5134927;27;20118;-74
2022/03/06 04:44:23;;;;;;;20.40;11.88;;;7.60;92.90;;;;;;5132770;27;20172;-73
2022/03/06 04:46:49;;;;;;;20.42;11.10;;;7.50;92.90;;;;;;5133044;27;20506;-73
2022/03/06 04:49:15;;;;;;;20.75;11.00;;;7.60;92.90;;;;;;5131429;27;20026;-74
2022/03/06 04:51:41;;;;;;;21.48;12.07;;;7.60;92.90;;;;;;5132754;27;20039;-74
2022/03/06 04:54:07;;;;;;;24.70;12.82;;;7.60;92.90;;;;;;5133678;27;20099;-73
2022/03/06 04:56:34;;;;;;;20.23;11.98;;;7.60;92.90;;;;;;5134238;27;20030;-74
2022/03/06 04:58:59;;;;;;;23.27;12.13;;;7.60;92.90;;;;;;5132265;27;20027;-74
2022/03/06 05:01:25;;;;;;;25.15;11.90;;;7.60;92.90;;;;;;5132457;27;20495;-73
2022/03/06 05:03:50;;;;;;;26.45;13.50;;;7.60;92.80;;;;;;5133085;27;20058;-74
2022/03/06 05:06:16;;;;;;;26.40;12.80;;;7.60;92.80;;;;;;5113684;27;20027;-74
2022/03/06 05:08:42;;;;;;;24.42;13.10;;;7.60;92.80;;;;;;5116144;27;20047;-74
2022/03/06 05:11:07;;;;;;;23.35;12.52;;;7.60;92.80;;;;;;5132355;27;20031;-73
2022/03/06 05:13:33;;;;;;;25.60;12.93;;;7.60;92.80;;;;;;5113997;27;20028;-73
2022/03/06 05:15:59;;;;;;;24.08;13.90;;;7.60;92.80;;;;;;5132320;27;20027;-74
2022/03/06 05:18:25;;;;;;;27.35;13.95;;;7.60;92.80;;;;;;5132262;27;20400;-74
2022/03/06 05:20:50;;;;;;;25.77;13.52;;;7.60;92.80;;;;;;5134303;27;20039;-74
2022/03/06 05:23:17;;;;;;;27.55;14.85;;;7.60;92.80;;;;;;5132178;27;20027;-74
2022/03/06 05:25:43;;;;;;;27.92;14.75;;;7.60;92.80;;;;;;5132265;27;20082;-74
2022/03/06 05:28:10;;;;;;;28.23;15.02;;;7.60;92.80;;;;;;5130215;27;20023;-74
2022/03/06 05:30:35;;;;;;;27.60;15.07;;;7.60;92.80;;;;;;5132036;27;20061;-74
2022/03/06 05:33:01;;;;;;;29.48;16.77;;;7.60;92.80;;;;;;5114959;27;20478;-74
2022/03/06 05:35:27;;;;;;;28.88;15.75;;;7.60;92.80;;;;;;5132543;27;20042;-74
2022/03/06 05:37:53;;;;;;;35.10;17.13;;;7.60;92.80;;;;;;5132221;27;20399;-74
2022/03/06 05:40:19;;;;;;;28.35;15.32;;;7.60;92.80;;;;;;5131738;27;20039;-74
2022/03/06 05:42:44;;;;;;;28.90;15.68;;;7.60;92.90;;;;;;5131396;27;20053;-74
2022/03/06 05:45:10;;;;;;;29.75;15.82;;;7.60;92.90;;;;;;5132402;27;20389;-74
2022/03/06 05:47:36;;;;;;;32.30;18.63;;;7.60;92.80;;;;;;5133638;27;20444;-74
2022/03/06 05:50:04;;;;;;;34.97;17.25;;;7.60;92.80;;;;;;5131571;27;20025;-74
2022/03/06 05:52:31;;;;;;;29.40;16.20;;;7.50;92.80;;;;;;5130065;27;20023;-74
2022/03/06 05:54:57;;;;;;;29.98;16.55;;;7.60;92.80;;;;;;5113064;27;20012;-74
2022/03/06 05:57:24;;;;;;;36.30;19.10;;;7.60;92.70;;;;;;5113146;27;20395;-74
2022/03/06 05:59:50;;;;;;;33.80;16.92;;;7.60;92.80;;;;;;5133482;27;20019;-74
2022/03/06 06:02:16;;;;;;;37.22;17.67;;;7.60;92.80;;;;;;5131410;27;20046;-74
2022/03/06 06:04:41;;;;;;;35.42;17.58;;;7.60;92.70;;;;;;5131804;27;20432;-74
2022/03/06 06:07:07;;;;;;;36.05;20.05;;;7.50;92.80;;;;;;5129979;27;20015;-74
2022/03/06 06:09:33;;;;;;;36.15;19.33;;;7.50;92.70;;;;;;5131331;27;20399;-74
2022/03/06 06:11:58;;;;;;;36.88;17.15;;;7.60;92.70;;;;;;5132973;27;20463;-74
2022/03/06 06:14:24;;;;;;;36.53;18.00;;;7.60;92.70;;;;;;5131729;27;20023;-74
2022/03/06 06:16:50;;;;;;;34.15;17.30;;;7.60;92.60;;;;;;5131102;27;20019;-74
2022/03/06 06:19:15;;;;;;;40.35;19.60;;;7.50;92.60;;;;;;5130253;27;20062;-74
2022/03/06 06:21:43;;;;;;;40.10;18.75;;;7.50;92.50;;;;;;5131047;27;20039;-74
2022/03/06 06:24:13;;;;;;;39.00;18.48;;;7.50;92.50;;;;;;5131572;27;20375;-74
2022/03/06 06:26:40;;;;;;;39.15;17.20;;;7.60;92.40;;;;;;5130729;27;20061;-74
2022/03/06 06:29:06;;;;;;;37.50;17.48;;;7.50;92.10;;;;;;5112323;27;20026;-74
2022/03/06 06:31:31;;;;;;;41.75;17.92;;;7.60;92.10;;;;;;5131192;27;20026;-74
2022/03/06 06:33:58;;;;;;;42.80;18.92;;;7.50;91.70;;;;;;5130948;27;20510;-74
2022/03/06 06:36:24;;;;;;;43.15;18.70;;;7.50;91.40;;;;;;5130997;27;20026;-73
2022/03/06 06:38:49;;;;;;;41.50;17.35;;;7.50;91.70;;;;;;5133187;27;20045;-74
2022/03/06 06:41:15;;;;;;;37.97;16.52;;;7.50;91.10;;;;;;5130416;27;20038;-74
2022/03/06 06:43:42;;;;;;;40.10;17.58;;;7.40;90.60;;;;;;5130742;27;20527;-74
2022/03/06 06:46:09;;;;;;;37.35;16.30;;;7.40;90.20;;;;;;5129107;27;20042;-74
2022/03/06 06:48:34;;;;;;;36.30;15.88;;;7.40;90.70;;;;;;5112380;27;20399;-74
2022/03/06 06:51:00;;;;;;;41.65;17.20;;;7.40;90.60;;;;;;5132290;27;20031;-74
2022/03/06 06:53:26;;;;;;;40.80;16.13;;;7.40;90.80;;;;;;5129745;27;20019;-74
2022/03/06 06:55:51;;;;;;;42.17;18.25;;;7.40;90.20;;;;;;5130246;27;20399;-73
2022/03/06 06:58:17;;;;;;;41.55;17.67;;;7.30;90.10;;;;;;5130433;27;20027;-74
2022/03/06 07:00:42;;;;;;;42.60;17.35;;;7.40;90.30;;;;;;5130443;27;20502;-73
2022/03/06 07:03:09;;;;;;;36.90;17.58;;;7.30;90.30;;;;;;5131764;27;20503;-74
2022/03/06 07:05:35;;;;;;;38.58;18.85;;;7.40;90.20;;;;;;5136115;27;20058;-73
2022/03/06 07:08:00;;;;;;;37.50;16.65;;;7.30;90.00;;;;;;5133028;27;20387;-74
2022/03/06 07:10:26;;;;;;;43.05;19.42;;;7.30;89.80;;;;;;5109649;28;20052;-74
2022/03/06 07:12:55;;;;;;;35.58;16.98;;;7.30;89.50;;;;;;5130193;28;20030;-73
2022/03/06 07:15:22;;;;;;;45.15;18.27;;;7.30;89.50;;;;;;5130686;28;20066;-74
2022/03/06 07:17:48;;;;;;;40.78;17.45;;;7.30;89.70;;;;;;5119818;28;20016;-74
2022/03/06 07:20:14;;;;;;;41.45;17.15;;;7.30;89.40;;;;;;5127036;27;20515;-74
2022/03/06 07:22:40;;;;;;;39.90;18.17;;;7.30;89.80;;;;;;5130467;27;20055;-73
2022/03/06 07:25:06;;;;;;;42.47;18.08;;;7.30;90.00;;;;;;5110360;28;20051;-74
2022/03/06 07:27:31;;;;;;;35.05;16.05;;;7.30;89.80;;;;;;5130862;27;20039;-74
2022/03/06 07:29:58;;;;;;;36.58;15.80;;;7.40;90.10;;;;;;5134664;27;20026;-74
2022/03/06 07:32:24;;;;;;;34.55;15.00;;;7.40;89.50;;;;;;5133463;27;20476;-74
2022/03/06 07:34:49;;;;;;;37.28;17.45;;;7.40;89.60;;;;;;5134501;27;20023;-74
2022/03/06 07:37:15;;;;;;;38.92;16.73;;;7.40;89.50;;;;;;5134933;27;20106;-73
2022/03/06 07:39:41;;;;;;;33.30;14.85;;;7.40;89.10;;;;;;5134371;27;20027;-74
2022/03/06 07:42:07;;;;;;;40.25;17.05;;;7.50;90.00;;;;;;5135571;27;20376;-74
2022/03/06 07:44:33;;;;;;;31.00;14.73;;;7.40;88.70;;;;;;5135927;27;20092;-74
2022/03/06 07:47:12;;;;;;;35.13;15.25;;;7.40;89.00;;;;;;5116780;27;20066;-74
2022/03/06 07:49:37;;;;;;;40.20;16.55;;;7.40;89.10;;;;;;5134585;27;20501;-74
2022/03/06 07:52:03;;;;;;;36.50;18.02;;;7.40;88.00;;;;;;5133683;27;20019;-74
2022/03/06 07:54:29;;;;;;;37.38;17.27;;;7.40;88.40;;;;;;5134510;27;20037;-73
2022/03/06 07:56:55;;;;;;;38.65;17.73;;;7.40;88.60;;;;;;5136711;27;20023;-74
2022/03/06 07:59:24;;;;;;;33.53;15.45;;;7.30;87.70;;;;;;5134332;27;20029;-74
2022/03/06 08:01:49;;;;;;;36.25;16.15;;;7.40;88.40;;;;;;5134319;27;20031;-73
2022/03/06 08:04:15;;;;;;;37.35;16.27;;;7.40;88.80;;;;;;5132936;27;20050;-73
2022/03/06 08:06:40;;;;;;;37.08;15.60;;;7.40;87.80;;;;;;5115553;27;20454;-73
2022/03/06 08:09:06;;;;;;;36.10;16.52;;;7.40;88.40;;;;;;5135259;27;20023;-73
2022/03/06 08:11:32;;;;;;;36.33;16.40;;;7.40;88.30;;;;;;5135208;27;20499;-73
2022/03/06 08:13:57;;;;;;;36.63;16.73;;;7.40;88.20;;;;;;5115675;27;20075;-73
2022/03/06 08:16:23;;;;;;;37.40;15.95;;;7.40;88.00;;;;;;5134104;27;20027;-75
2022/03/06 08:18:48;;;;;;;33.83;15.02;;;7.50;87.90;;;;;;5134034;27;20031;-74
2022/03/06 08:21:14;;;;;;;32.28;15.45;;;7.50;87.90;;;;;;5133710;27;20126;-74
2022/03/06 08:23:40;;;;;;;38.03;16.10;;;7.40;86.90;;;;;;5136169;27;20023;-74
2022/03/06 08:26:05;;;;;;;37.38;17.70;;;7.40;86.80;;;;;;5133854;27;20027;-74
2022/03/06 08:28:31;;;;;;;35.75;16.75;;;7.40;86.20;;;;;;5132336;27;20548;-74
2022/03/06 08:30:56;;;;;;;36.88;16.58;;;7.40;87.00;;;;;;5133615;27;20384;-74
2022/03/06 08:33:22;;;;;;;33.33;15.93;;;7.40;86.40;;;;;;5133741;27;20023;-74
2022/03/06 08:35:48;;;;;;;34.15;16.65;;;7.40;86.20;;;;;;5134689;27;20134;-74
2022/03/06 08:38:13;;;;;;;38.97;17.25;;;7.50;86.20;;;;;;5133391;27;20399;-73
2022/03/06 08:40:39;;;;;;;33.13;16.00;;;7.50;85.90;;;;;;5132731;27;20586;-73
2022/03/06 08:43:04;;;;;;;36.47;16.63;;;7.50;85.20;;;;;;5131748;27;20088;-73
2022/03/06 08:45:30;;;;;;;36.80;16.02;;;7.50;85.00;;;;;;5132088;27;20504;-73
2022/03/06 08:47:56;;;;;;;33.20;15.75;;;7.50;84.80;;;;;;5142945;27;20023;-73
2022/03/06 08:50:22;;;;;;;34.42;16.80;;;7.50;84.30;;;;;;5132811;27;20114;-74
2022/03/06 08:52:47;;;;;;;34.47;16.10;;;7.50;84.10;;;;;;5132884;27;20023;-73
2022/03/06 08:55:13;;;;;;;31.15;15.32;;;7.50;83.70;;;;;;5141056;27;20023;-73
2022/03/06 08:57:38;;;;;;;33.28;15.55;;;7.40;82.90;;;;;;5132909;27;20026;-74
2022/03/06 09:00:08;;;;;;;27.88;13.60;;;7.50;84.00;;;;;;5141666;27;20046;-74
2022/03/06 09:02:33;;;;;;;30.70;13.38;;;7.60;84.30;;;;;;5133169;27;20057;-73
2022/03/06 09:04:59;;;;;;;29.30;14.15;;;7.60;83.40;;;;;;5132289;27;20387;-74
2022/03/06 09:07:25;;;;;;;24.48;11.57;;;7.60;82.20;;;;;;5139727;27;20062;-73
2022/03/06 09:09:50;;;;;;;25.00;12.38;;;7.60;81.90;;;;;;5132754;27;20057;-74
2022/03/06 09:12:18;;;;;;;23.73;11.35;;;7.60;82.50;;;;;;5140574;27;20062;-73
2022/03/06 09:14:43;;;;;;;18.92;10.40;;;7.60;79.30;;;;;;5134318;27;20392;-73
2022/03/06 09:17:09;;;;;;;21.50;10.48;;;7.60;80.10;;;;;;5133528;27;20499;-74
2022/03/06 09:19:35;;;;;;;20.10;10.00;;;7.70;79.90;;;;;;5138792;27;20030;-73
2022/03/06 09:22:01;;;;;;;17.52;9.80;;;7.60;77.80;;;;;;5132047;27;20120;-73
2022/03/06 09:24:27;;;;;;;19.23;9.68;;;7.70;79.50;;;;;;5140078;27;20484;-76
2022/03/06 09:26:52;;;;;;;17.58;9.68;;;7.70;79.90;;;;;;5133851;27;20438;-78
2022/03/06 09:29:18;;;;;;;16.98;9.10;;;7.70;77.80;;;;;;5116295;27;20027;-79
2022/03/06 09:31:44;;;;;;;16.60;8.75;;;7.70;78.30;;;;;;5137746;27;20525;-78
2022/03/06 09:34:10;;;;;;;16.13;8.60;;;7.80;79.00;;;;;;5131569;27;20139;-73
2022/03/06 09:36:36;;;;;;;19.90;9.63;;;7.80;77.90;;;;;;5140047;27;20152;-76
2022/03/06 09:39:04;;;;;;;18.10;8.93;;;7.80;76.80;;;;;;5132870;27;20516;-74
2022/03/06 09:41:30;;;;;;;18.83;9.05;;;7.80;76.90;;;;;;5135315;27;20494;-75
2022/03/06 09:43:56;;;;;;;16.17;9.07;;;7.70;76.10;;;;;;5116723;27;20015;-75
2022/03/06 09:46:24;;;;;;;17.98;9.40;;;7.70;76.10;;;;;;5131768;27;20042;-75
2022/03/06 09:48:50;;;;;;;19.65;9.65;;;7.80;76.80;;;;;;5135209;27;20054;-75
2022/03/06 09:51:16;;;;;;;16.00;9.65;;;7.70;74.30;;;;;;5130114;27;20534;-74
2022/03/06 09:53:42;;;;;;;19.77;9.55;;;7.70;74.50;;;;;;5138576;27;20007;-74
2022/03/06 09:56:07;;;;;;;19.88;10.05;;;7.70;74.50;;;;;;5132918;27;20066;-73
2022/03/06 09:58:33;;;;;;;17.83;9.95;;;7.70;73.80;;;;;;5130920;27;20031;-74
2022/03/06 10:00:59;;;;;;;15.77;8.88;;;7.70;72.90;;;;;;5133545;27;20039;-74
2022/03/06 10:03:25;;;;;;;16.73;9.00;;;7.70;72.30;;;;;;5114419;27;22136;-74
2022/03/06 10:05:51;;;;;;;15.48;8.93;;;7.70;71.80;;;;;;5140119;27;20054;-74
2022/03/06 10:08:23;;;;;;;17.40;9.60;;;7.70;70.60;;;;;;5132548;27;20023;-75
2022/03/06 10:10:53;;;;;;;15.57;8.85;;;7.70;71.10;;;;;;5131065;27;20431;-75
2022/03/06 10:13:23;;;;;;;16.73;7.95;;;7.80;70.80;;;;;;5130125;27;20080;-73
2022/03/06 10:15:59;;;;;;;14.15;8.07;;;7.80;71.20;;;;;;5135645;27;20031;-73
2022/03/06 10:18:28;;;;;;;15.02;8.50;;;7.90;72.00;;;;;;5134433;27;20116;-73
2022/03/06 10:20:53;;;;;;;16.52;8.43;;;7.80;68.70;;;;;;5131707;27;20081;-73
2022/03/06 10:23:26;;;;;;;16.85;8.65;;;7.70;69.00;;;;;;5131804;27;20062;-74
2022/03/06 10:26:04;;;;;;;16.35;8.50;;;7.70;69.70;;;;;;5110389;27;20107;-73
2022/03/06 10:28:30;;;;;;;16.25;7.93;;;7.80;70.00;;;;;;5130281;27;20024;-73
2022/03/06 10:31:04;;;;;;;15.05;7.90;;;7.80;70.00;;;;;;5133275;27;20027;-74
2022/03/06 10:33:30;;;;;;;14.27;8.18;;;7.80;70.00;;;;;;5126029;27;20024;-74
2022/03/06 10:35:58;;;;;;;17.80;9.10;;;7.80;70.40;;;;;;5135119;27;20042;-73
2022/03/06 10:38:32;;;;;;;17.85;9.60;;;7.80;68.60;;;;;;5130609;27;20052;-73
2022/03/06 10:41:18;;;;;;;;;;;7.70;68.30;;;;;;5128645;27;20046;-73
2022/03/06 10:43:43;;;;;;;16.65;8.52;;;7.80;69.70;;;;;;5111052;27;19908;-73
2022/03/06 10:46:21;;;;;;;19.60;9.93;;;7.80;68.20;;;;;;5129475;27;20058;-73
2022/03/06 10:48:58;;;;;;;19.60;10.52;;;7.80;68.20;;;;;;5138011;27;20437;-73
2022/03/06 10:51:25;;;;;;;20.30;11.05;;;7.80;67.80;;;;;;5129880;27;20690;-73
2022/03/06 10:53:52;;;;;;;21.40;10.95;;;7.70;67.10;;;;;;5138792;27;20043;-73
2022/03/06 10:56:18;;;;;;;22.33;11.70;;;7.80;67.30;;;;;;5130503;27;20027;-74
2022/03/06 10:58:45;;;;;;;21.15;11.82;;;7.80;68.00;;;;;;5129517;27;20124;-74
2022/03/06 11:01:12;;;;;;;24.33;13.07;;;7.90;68.80;;;;;;5137443;27;20045;-73
2022/03/06 11:03:38;;;;;;;23.13;13.23;;;7.90;67.30;;;;;;5112381;27;20027;-73
2022/03/06 11:06:05;;;;;;;25.08;13.02;;;7.90;67.60;;;;;;5138407;27;20090;-73
2022/03/06 11:08:31;;;;;;;23.30;12.60;;;8.00;68.10;;;;;;5131411;27;20023;-74
2022/03/06 11:10:57;;;;;;;19.33;11.52;;;8.10;66.90;;;;;;5130092;27;20045;-74
2022/03/06 11:13:24;;;;;;;20.70;11.43;;;8.20;68.00;;;;;;5138396;27;20692;-72
2022/03/06 11:15:50;;;;;;;19.50;11.38;;;8.40;67.40;;;;;;5129106;27;20487;-72
2022/03/06 11:18:16;;;;;;;17.38;10.27;;;8.50;68.00;;;;;;5119681;27;20031;-75
2022/03/06 11:20:45;;;;;;;20.38;11.27;;;8.70;67.40;;;;;;5131312;27;20063;-74
2022/03/06 11:23:37;;;;;;;19.88;11.75;;;8.80;67.80;;;;;;5131363;27;20073;-75
2022/03/06 11:26:05;;;;;;;18.00;10.50;;;8.80;65.50;;;;;;5132612;27;20027;-75
2022/03/06 11:28:38;;;;;;;17.05;10.38;;;8.80;67.00;;;;;;5129782;27;20114;-75
2022/03/06 11:31:04;;;;;;;23.50;11.65;;;8.90;66.10;;;;;;5137853;27;20030;-75
2022/03/06 11:33:30;;;;;;;21.30;10.90;;;8.80;64.50;;;;;;5129775;27;20019;-75
2022/03/06 11:35:56;;;;;;;19.35;11.75;;;8.80;65.80;;;;;;5139324;27;20026;-76
2022/03/06 11:38:37;;;;;;;21.00;11.68;;;8.90;65.90;;;;;;5129824;27;20035;-76
2022/03/06 11:41:10;;;;;;;20.45;12.60;;;9.10;65.40;;;;;;5129966;27;20058;-76
2022/03/06 11:43:44;;;;;;;;;;;9.00;63.30;;;;;;5135049;27;20057;-76
2022/03/06 11:46:24;;;;;;;20.25;11.80;;;9.10;66.10;;;;;;5127619;27;19915;-76
2022/03/06 11:48:50;;;;;;;19.27;11.50;;;9.10;65.70;;;;;;5137199;27;20042;-75
2022/03/06 11:51:19;;;;;;;22.67;13.38;;;9.30;65.20;;;;;;5130361;27;20027;-76
2022/03/06 11:53:45;;;;;;;20.55;13.00;;;9.50;65.30;;;;;;5130264;27;20027;-76
2022/03/06 11:59:08;;;;;;;25.45;14.85;;;9.80;63.50;;;;;;5128742;27;20035;-76
2022/03/06 12:01:36;;;;;;;24.60;14.55;;;9.80;62.30;;;;;;5102445;28;20403;-76
2022/03/06 12:04:21;;;;;;;24.55;13.15;;;9.80;62.60;;;;;;5128722;27;20019;-76
2022/03/06 12:07:02;;;;;;;25.10;15.27;;;9.90;64.60;;;;;;5136774;27;20032;-76
2022/03/06 12:09:37;;;;;;;24.73;15.45;;;9.90;63.60;;;;;;5129615;27;20027;-76
2022/03/06 12:12:25;;;;;;;27.15;15.07;;;10.00;62.60;;;;;;5135285;27;20070;-75
2022/03/06 12:14:54;;;;;;;25.02;16.00;;;10.10;62.20;;;;;;5130759;27;20491;-75
2022/03/06 12:17:36;;;;;;;28.58;16.70;;;10.40;63.20;;;;;;5115641;27;20026;-76
2022/03/06 12:20:08;;;;;;;32.03;19.15;;;10.60;63.10;;;;;;5135874;27;20024;-76
2022/03/06 12:22:45;;;;;;;33.13;20.30;;;10.30;59.80;;;;;;5133315;27;20102;-76
2022/03/06 12:25:10;;;;;;;30.50;18.73;;;10.10;59.60;;;;;;5141207;27;20011;-76
2022/03/06 12:27:39;;;;;;;30.02;19.50;;;10.00;60.70;;;;;;5132681;27;20490;-75
2022/03/06 12:30:09;;;;;;;31.85;20.33;;;10.10;62.20;;;;;;5142786;27;20019;-74
2022/03/06 12:32:36;;;;;;;34.20;20.50;;;9.90;61.60;;;;;;5116374;27;20027;-75
2022/03/06 12:35:11;;;;;;;35.17;20.48;;;9.80;61.90;;;;;;5115477;27;20028;-74
2022/03/06 12:37:44;;;;;;;34.63;20.27;;;9.80;60.70;;;;;;5140010;27;20019;-74
2022/03/06 12:40:12;;;;;;;35.63;22.80;;;9.80;61.70;;;;;;5133511;27;20479;-74
2022/03/06 12:42:39;;;;;;;34.88;21.27;;;9.90;61.80;;;;;;5141049;27;20031;-75
2022/03/06 12:45:15;;;;;;;38.22;20.75;;;9.90;60.90;;;;;;5116515;27;20039;-74